This is the latest recevied weather packets stored in our database for station/object LU3MCV-13. If no packets are shown the sender has not sent any weather packets the latest 1 day(s).
| Time | Temp. | Humidity | Pressure | Rain* | Wind** | Luminosity | Snow |
|---|---|---|---|---|---|---|---|
| 1778114599 | 17.22° C | 10% | 926.3 hPa | - | - | - | - |
| 1778105598 | 18.89° C | 13% | 926.3 hPa | - | - | - | - |
| 1778104698 | 18.89° C | 13% | 925.8 hPa | - | - | - | - |
| 1778096590 | 22.22° C | 10% | 924.9 hPa | - | - | - | - |
| 1778095690 | 22.22° C | 8% | 924.8 hPa | - | - | - | - |
| 1778094790 | 22.22° C | 8% | 924.7 hPa | - | - | - | - |
| 1778092090 | 23.89° C | 8% | 924 hPa | - | - | - | - |
| 1778091190 | 23.89° C | 8% | 923.1 hPa | - | - | - | - |
| 1778090290 | 23.89° C | 12% | 923.8 hPa | - | - | - | - |
| 1778087590 | 23.89° C | 20% | 923.6 hPa | - | - | - | - |
| 1778085790 | 23.89° C | 20% | 923.4 hPa | - | - | - | - |
| 1778083990 | 22.78° C | 22% | 923.7 hPa | - | - | - | - |
| 1778081290 | 22.22° C | 25% | 924.5 hPa | - | - | - | - |
| 1778076790 | 18.89° C | 28% | 925.8 hPa | - | - | - | - |
| 1778075890 | 18.89° C | 30% | 926.1 hPa | - | - | - | - |
| 1778074090 | 17.78° C | 32% | 926 hPa | - | - | - | - |
| 1778073190 | 17.78° C | 32% | 926.3 hPa | - | - | - | - |
| 1778071390 | 17.22° C | 34% | 926.3 hPa | - | - | - | - |
| 1778070489 | 16.11° C | 35% | 926.4 hPa | - | - | - | - |
| 1778069590 | 15° C | 35% | 926.5 hPa | - | - | - | - |
| 1778066890 | 13.89° C | 39% | 926.2 hPa | - | - | - | - |
| 1778065090 | 13.89° C | 37% | 926.3 hPa | - | - | - | - |
| 1778063290 | 13.89° C | 37% | 926.4 hPa | - | - | - | - |
| 1778062390 | 13.89° C | 37% | 926.4 hPa | - | - | - | - |
| 1778061490 | 13.89° C | 36% | 926.4 hPa | - | - | - | - |
* Rain since midnight (hover to see other rain measurements)
** Current wind speed in m/s (hover to see current wind gust speed)